MeteoGriva Station Historical Data
 
Daily Summary for September 22, 2020 Units:  Metric    English   Both
Daily Weekly Monthly Yearly Custom
  Current: High: Low: Average:
Temperature: 16 °C 18.7 °C 16 °C 17.5 °C
Dew Point: 15.8 °C 15.8 °C 13.6 °C 14.3 °C
Humidity: 99% 99% 73% 82%
Wind Speed: 0km/h 4.8km/h 0km/h 0.3km/h
Wind Gust: 0km/h 12.2km/h - -
WindCalm - - South
Pressure: 1016.9 hPa 1017.3 hPa 1016.3 hPa -
Precipitation: 0.0 mm      
Historical Graphs
 
 
Tabular Data for September 22, 2020
Time Temperature Dew Point Pressure Wind Wind Speed Wind Gust Humidity Rainfall Rate (Hourly) solar
00:04 18.6 °C 13.7 °C 1016.9 hPa South 1.7 km/h 7.9 km/h 73% 0.0 mm 0 W/m2
00:09 18.6 °C 13.7 °C 1016.6 hPa SSW 4.8 km/h 7.9 km/h 73% 0.0 mm 0 W/m2
00:14 18.6 °C 13.7 °C 1016.9 hPa South 4.3 km/h 12.2 km/h 73.1% 0.0 mm 0 W/m2
00:19 18.6 °C 13.9 °C 1016.6 hPa South 3.2 km/h 7.9 km/h 74% 0.0 mm 0 W/m2
00:24 18.5 °C 13.9 °C 1016.6 hPa South 1.3 km/h 7.9 km/h 74.3% 0.0 mm 0 W/m2
00:29 18.5 °C 13.9 °C 1016.9 hPa South 1.7 km/h 7.9 km/h 74.6% 0.0 mm 0 W/m2
00:34 18.5 °C 14 °C 1016.9 hPa SSW 0.4 km/h 7.9 km/h 75% 0.0 mm 0 W/m2
00:39 18.4 °C 14 °C 1016.9 hPa SSE 0.2 km/h 7.9 km/h 75.7% 0.0 mm 0 W/m2
00:44 18.2 °C 13.9 °C 1016.9 hPa South 0.6 km/h 4 km/h 76% 0.0 mm 0 W/m2
00:49 18.2 °C 13.9 °C 1016.9 hPa SSW 0.2 km/h 4 km/h 76% 0.0 mm 0 W/m2
00:54 18.2 °C 13.9 °C 1016.9 hPa South 0.6 km/h 4 km/h 76% 0.0 mm 0 W/m2
00:59 18.3 °C 14.1 °C 1016.9 hPa South 0.3 km/h 7.9 km/h 76.7% 0.0 mm 0 W/m2
01:04 18.7 °C 14.5 °C 1016.9 hPa South 2.2 km/h 7.9 km/h 76.3% 0.0 mm 0 W/m2
01:09 18.7 °C 14.4 °C 1016.9 hPa SSW 0.1 km/h 7.9 km/h 76.1% 0.0 mm 0 W/m2
01:14 18.7 °C 14.4 °C 1016.9 hPa Calm   4 km/h 76.2% 0.0 mm 0 W/m2
01:19 18.6 °C 14.5 °C 1016.9 hPa Calm     77% 0.0 mm 0 W/m2
01:24 18.2 °C 14 °C 1016.9 hPa Calm     77% 0.0 mm 0 W/m2
01:29 18.1 °C 14.2 °C 1017.3 hPa Calm     77.9% 0.0 mm 0 W/m2
01:34 18.1 °C 14.2 °C 1016.9 hPa Calm     78% 0.0 mm 0 W/m2
01:39 18.1 °C 14.3 °C 1017.3 hPa Calm     78.7% 0.0 mm 0 W/m2
01:44 18 °C 14.2 °C 1016.9 hPa Calm     78.4% 0.0 mm 0 W/m2
01:49 18.1 °C 14.1 °C 1016.9 hPa Calm     77.6% 0.0 mm 0 W/m2
01:54 18.1 °C 14.2 °C 1016.9 hPa Calm     78.1% 0.0 mm 0 W/m2
01:59 18.1 °C 14.3 °C 1016.9 hPa Calm     78.7% 0.0 mm 0 W/m2
02:04 18 °C 14.2 °C 1016.9 hPa Calm     78.3% 0.0 mm 0 W/m2
02:09 18 °C 14.1 °C 1017.3 hPa Calm     78% 0.0 mm 0 W/m2
02:14 18 °C 14.2 °C 1016.9 hPa Calm     78.7% 0.0 mm 0 W/m2
02:19 17.9 °C 14.4 °C 1016.9 hPa Calm     79.9% 0.0 mm 0 W/m2
02:24 17.3 °C 13.9 °C 1016.9 hPa Calm     80.7% 0.0 mm 0 W/m2
02:29 17.2 °C 13.9 °C 1016.9 hPa Calm     81% 0.0 mm 0 W/m2
02:34 17.2 °C 13.9 °C 1016.9 hPa Calm     80.8% 0.0 mm 0 W/m2
02:39 17.2 °C 13.8 °C 1016.9 hPa Calm     80.6% 0.0 mm 0 W/m2
02:44 17.1 °C 13.8 °C 1016.6 hPa Calm     81% 0.0 mm 0 W/m2
02:49 17.1 °C 13.7 °C 1016.9 hPa Calm     80.6% 0.0 mm 0 W/m2
02:54 17.1 °C 13.6 °C 1016.9 hPa Calm     80.2% 0.0 mm 0 W/m2
02:59 17.2 °C 13.7 °C 1016.9 hPa Calm     80% 0.0 mm 0 W/m2
03:04 17.2 °C 13.8 °C 1016.9 hPa Calm     80.7% 0.0 mm 0 W/m2
03:09 17.2 °C 14.1 °C 1016.9 hPa Calm     82% 0.0 mm 0 W/m2
03:14 17.1 °C 14 °C 1016.9 hPa Calm     82% 0.0 mm 0 W/m2
03:19 17.1 °C 14 °C 1016.6 hPa Calm     82% 0.0 mm 0 W/m2
03:24 16.9 °C 13.8 °C 1016.6 hPa Calm     82.1% 0.0 mm 0 W/m2
03:29 16.9 °C 13.6 °C 1016.9 hPa Calm     81.2% 0.0 mm 0 W/m2
03:34 16.9 °C 13.8 °C 1016.6 hPa Calm     82% 0.0 mm 0 W/m2
03:39 17 °C 13.8 °C 1016.6 hPa Calm     81.6% 0.0 mm 0 W/m2
03:44 17.3 °C 13.9 °C 1016.6 hPa Calm     80.4% 0.0 mm 0 W/m2
03:49 17.4 °C 14 °C 1016.6 hPa Calm     80.3% 0.0 mm 0 W/m2
03:54 17.4 °C 13.9 °C 1016.3 hPa Calm     79.8% 0.0 mm 0 W/m2
03:59 17.5 °C 13.8 °C 1016.3 hPa Calm     79.2% 0.0 mm 0 W/m2
04:04 17.7 °C 14.1 °C 1016.6 hPa Calm     79.2% 0.0 mm 0 W/m2
04:09 17.7 °C 14.2 °C 1016.6 hPa Calm     79.6% 0.0 mm 0 W/m2
04:14 17.7 °C 14.2 °C 1016.6 hPa Calm     80.1% 0.0 mm 0 W/m2
04:19 17.7 °C 14.1 °C 1016.3 hPa Calm     79.9% 0.0 mm 0 W/m2
04:24 17.4 °C 14 °C 1016.3 hPa Calm     80.7% 0.0 mm 0 W/m2
04:29 17.3 °C 13.8 °C 1016.3 hPa Calm     80.1% 0.0 mm 0 W/m2
04:34 17.3 °C 14 °C 1016.3 hPa Calm     81% 0.0 mm 0 W/m2
04:39 17.3 °C 14 °C 1016.3 hPa Calm     81% 0.0 mm 0 W/m2
04:44 17.4 °C 13.9 °C 1016.3 hPa Calm     80% 0.0 mm 0 W/m2
04:49 17.5 °C 14 °C 1016.6 hPa Calm     80% 0.0 mm 0 W/m2
04:54 17.5 °C 13.9 °C 1016.3 hPa Calm     79.6% 0.0 mm 0 W/m2
04:59 17.5 °C 14 °C 1016.3 hPa Calm     80% 0.0 mm 0 W/m2
05:04 17.5 °C 14.2 °C 1016.3 hPa Calm     80.9% 0.0 mm 0 W/m2
05:09 17.5 °C 14.5 °C 1016.3 hPa Calm     82.7% 0.0 mm 0 W/m2
05:14 17.5 °C 14.8 °C 1016.3 hPa Calm     84.6% 0.0 mm 0 W/m2
05:19 17.4 °C 14.9 °C 1016.6 hPa Calm     85% 0.0 mm 0 W/m2
05:24 17.2 °C 14.7 °C 1016.3 hPa Calm     85.8% 0.0 mm 0 W/m2
05:29 17 °C 14.8 °C 1016.6 hPa Calm     87.1% 0.0 mm 0 W/m2
05:34 17 °C 15 °C 1016.3 hPa Calm     88.2% 0.0 mm 0 W/m2
05:39 17 °C 15.2 °C 1016.3 hPa Calm     89.4% 0.0 mm 0 W/m2
05:44 16.9 °C 15.2 °C 1016.3 hPa Calm     90.2% 0.0 mm 0 W/m2
05:49 16.7 °C 15.2 °C 1016.6 hPa Calm     91% 0.0 mm 0 W/m2
05:54 16.7 °C 15.1 °C 1016.6 hPa Calm     90.1% 0.0 mm 0 W/m2
05:59 16.7 °C 15 °C 1016.6 hPa Calm     89.6% 0.0 mm 0 W/m2
06:04 16.5 °C 14.7 °C 1016.6 hPa Calm     89% 0.0 mm 0 W/m2
06:09 16.4 °C 14.8 °C 1016.6 hPa Calm     89.9% 0.0 mm 0 W/m2
06:14 16.3 °C 15 °C 1016.6 hPa Calm     91.4% 0.0 mm 0 W/m2
06:19 16.3 °C 15.5 °C 1016.9 hPa Calm     94.6% 0.0 mm 0 W/m2
06:24 16.2 °C 15.8 °C 1016.9 hPa Calm     97.4% 0.0 mm 0 W/m2
06:29 16 °C 15.8 °C 1016.9 hPa Calm     99% 0.0 mm 0 W/m2
06:34 16 °C 15.8 °C 1016.9 hPa Calm     99% 0.0 mm 0 W/m2
06:39 16 °C 15.8 °C 1016.9 hPa Calm     99% 0.0 mm 0 W/m2
Juneau County Weather
Compliments of Weather Underground - 2 mb